MDT,Max TemperatureF,Mean TemperatureF,Min TemperatureF,Max Dew PointF,MeanDew PointF,Min DewpointF,Max Humidity, Mean Humidity, Min Humidity, Max Sea Level PressureIn, Mean Sea Level PressureIn, Min Sea Level PressureIn, Max VisibilityMiles, Mean VisibilityMiles, Min VisibilityMiles, Max Wind SpeedMPH, Mean Wind SpeedMPH, Max Gust SpeedMPH,PrecipitationIn, CloudCover, Events, WindDirDegrees
2012-10-1,69,50,30,32,26,9,87,48,9,30.47,30.36,30.30,10,10,10,13,2,17,0.00,1,,347
2012-10-2,73,50,28,28,21,10,75,42,9,30.33,30.23,30.11,10,10,10,12,1,21,0.00,0,,286
2012-10-3,73,52,30,25,14,-8,69,34,6,30.26,30.14,30.05,10,10,10,22,4,33,0.00,2,,282
2012-10-4,64,47,30,23,15,3,69,37,9,30.28,30.19,30.09,10,10,10,20,5,32,0.00,3,,331
2012-10-5,59,46,32,28,12,-4,81,33,9,30.19,30.12,30.07,10,10,10,21,6,34,0.00,2,Rain,346
2012-10-6,48,36,23,14,3,-15,50,27,8,30.24,30.18,30.12,10,10,10,15,4,22,0.00,0,,343
2012-10-7,55,34,12,9,-1,-15,62,31,6,30.24,30.18,30.11,10,10,10,15,2,23,0.00,0,,344
2012-10-8,66,39,12,5,-4,-20,62,27,4,30.23,30.13,30.01,10,10,10,20,3,26,0.00,0,,258
2012-10-9,66,44,23,12,6,0,59,25,7,30.20,30.11,30.07,10,10,10,20,5,30,0.00,1,,307
2012-10-10,69,45,21,21,13,7,63,34,10,30.28,30.19,30.12,10,10,10,17,2,29,0.00,1,,300
2012-10-11,73,52,30,28,20,14,64,37,10,30.26,30.20,30.14,10,10,10,14,2,25,0.00,1,,307
2012-10-12,60,46,32,41,30,23,87,62,25,30.22,30.14,30.02,10,10,5,17,2,44,0.15,3,Rain-Thunderstorm,176
2012-10-13,44,40,35,34,32,30,87,76,61,30.30,30.16,30.07,10,10,5,22,7,28,0.07,8,Rain,252
2012-10-14,,,,,,,,,,,,,,,,,,,,,,
2012-10-15,66,50,35,32,25,16,87,40,16,30.32,30.19,30.12,10,10,7,20,5,24,0.00,0,,233
2012-10-16,64,47,30,37,27,23,86,54,21,30.19,30.00,29.77,10,10,5,28,7,39,0.01,3,Rain-Thunderstorm,254
2012-10-17,50,41,32,21,7,-9,56,29,8,30.19,30.03,29.86,10,10,10,22,12,34,0.00,1,,297
2012-10-18,53,38,23,16,8,3,59,30,13,30.31,30.27,30.20,10,10,10,16,8,22,0.00,0,,312
2012-10-19,64,40,17,19,15,10,80,45,12,30.32,30.21,30.08,10,10,10,20,2,28,0.00,0,,259
2012-10-20,69,46,23,23,15,1,86,41,8,30.11,30.00,29.89,10,10,10,21,3,26,0.00,0,,237
2012-10-21,66,48,30,21,17,10,64,38,12,30.03,29.97,29.92,10,10,10,17,4,29,0.00,0,,242
2012-10-22,66,46,26,25,20,12,75,41,13,30.04,29.95,29.87,10,10,10,26,6,37,0.00,0,,216
2012-10-23,62,56,50,23,15,1,33,21,9,29.92,29.89,29.82,10,10,10,31,19,50,0.00,1,,231
2012-10-24,55,42,30,30,21,3,87,45,13,30.02,29.89,29.77,10,9,0,28,14,44,0.01,6,Snow-Thunderstorm,240
2012-10-25,33,26,19,27,20,14,86,71,52,30.24,30.12,30.02,10,9,1,13,2,17,0.02,5,Snow,303
2012-10-26,35,26,17,18,14,3,86,61,30,30.41,30.30,30.19,10,10,2,10,3,17,0.00,4,Snow,194
2012-10-27,44,34,24,19,14,5,74,46,21,30.22,30.19,30.14,10,10,10,18,5,28,0.00,7,,259
2012-10-28,53,42,32,28,20,14,81,45,26,30.29,30.22,30.18,10,10,10,13,5,21,0.00,6,,266
2012-10-29,60,44,28,30,25,19,87,60,20,30.34,30.30,30.24,10,10,7,15,2,22,0.00,1,,265
2012-10-30,60,42,23,27,22,18,86,55,20,30.40,30.32,30.25,10,10,10,13,1,16,0.00,1,,346
2012-10-31,60,40,19,23,20,14,93,57,19,30.41,30.33,30.25,10,10,7,6,1,,0.00,0,,254